sensor_id;sensor_type;location;lat;lon;timestamp;temperature;humidity
47168;DHT22;32931;47.778;17.806;2023-04-15T00:00:30;8.00;99.90
47168;DHT22;32931;47.778;17.806;2023-04-15T00:02:56;7.90;99.90
47168;DHT22;32931;47.778;17.806;2023-04-15T00:05:22;8.00;99.90
47168;DHT22;32931;47.778;17.806;2023-04-15T00:07:48;8.00;99.90
47168;DHT22;32931;47.778;17.806;2023-04-15T00:10:14;8.00;99.90
47168;DHT22;32931;47.778;17.806;2023-04-15T00:12:40;8.00;99.90
47168;DHT22;32931;47.778;17.806;2023-04-15T00:15:08;8.00;99.90
47168;DHT22;32931;47.778;17.806;2023-04-15T00:17:35;8.00;99.90
47168;DHT22;32931;47.778;17.806;2023-04-15T00:20:03;8.00;99.90
47168;DHT22;32931;47.778;17.806;2023-04-15T00:22:31;8.00;99.90
47168;DHT22;32931;47.778;17.806;2023-04-15T00:24:57;8.00;99.90
47168;DHT22;32931;47.778;17.806;2023-04-15T00:27:24;8.00;99.90
47168;DHT22;32931;47.778;17.806;2023-04-15T00:29:50;8.10;99.90
47168;DHT22;32931;47.778;17.806;2023-04-15T00:32:16;8.10;99.90
47168;DHT22;32931;47.778;17.806;2023-04-15T00:34:42;8.00;99.90
47168;DHT22;32931;47.778;17.806;2023-04-15T00:37:09;8.10;99.90
47168;DHT22;32931;47.778;17.806;2023-04-15T00:39:35;8.10;99.90
47168;DHT22;32931;47.778;17.806;2023-04-15T00:42:03;8.10;99.90
47168;DHT22;32931;47.778;17.806;2023-04-15T00:44:30;8.10;99.90
47168;DHT22;32931;47.778;17.806;2023-04-15T00:46:58;8.10;99.90
47168;DHT22;32931;47.778;17.806;2023-04-15T00:49:25;8.10;99.90
47168;DHT22;32931;47.778;17.806;2023-04-15T00:51:53;8.10;99.90
47168;DHT22;32931;47.778;17.806;2023-04-15T00:54:19;8.10;99.90
47168;DHT22;32931;47.778;17.806;2023-04-15T00:56:46;8.10;99.90
47168;DHT22;32931;47.778;17.806;2023-04-15T00:59:13;8.10;99.90
47168;DHT22;32931;47.778;17.806;2023-04-15T01:01:40;8.10;99.90
47168;DHT22;32931;47.778;17.806;2023-04-15T01:04:07;8.10;99.90
47168;DHT22;32931;47.778;17.806;2023-04-15T01:06:35;8.10;99.90
47168;DHT22;32931;47.778;17.806;2023-04-15T01:09:01;8.10;99.90
47168;DHT22;32931;47.778;17.806;2023-04-15T01:11:28;8.10;99.90
47168;DHT22;32931;47.778;17.806;2023-04-15T01:13:57;8.10;99.90
47168;DHT22;32931;47.778;17.806;2023-04-15T01:16:23;8.10;99.90
47168;DHT22;32931;47.778;17.806;2023-04-15T01:18:49;8.10;99.90
47168;DHT22;32931;47.778;17.806;2023-04-15T01:21:17;8.10;99.90
47168;DHT22;32931;47.778;17.806;2023-04-15T01:23:46;8.10;99.90
47168;DHT22;32931;47.778;17.806;2023-04-15T01:26:13;8.10;99.90
47168;DHT22;32931;47.778;17.806;2023-04-15T01:28:39;8.10;99.90
47168;DHT22;32931;47.778;17.806;2023-04-15T01:31:10;8.10;99.90
47168;DHT22;32931;47.778;17.806;2023-04-15T01:33:38;8.10;99.90
47168;DHT22;32931;47.778;17.806;2023-04-15T01:36:06;8.10;99.90
47168;DHT22;32931;47.778;17.806;2023-04-15T01:38:33;8.00;99.90
47168;DHT22;32931;47.778;17.806;2023-04-15T01:40:59;8.10;99.90
47168;DHT22;32931;47.778;17.806;2023-04-15T01:43:26;8.10;99.90
47168;DHT22;32931;47.778;17.806;2023-04-15T01:45:53;8.10;99.90
47168;DHT22;32931;47.778;17.806;2023-04-15T01:48:19;8.10;99.90
47168;DHT22;32931;47.778;17.806;2023-04-15T01:50:45;8.10;99.90
47168;DHT22;32931;47.778;17.806;2023-04-15T01:53:12;8.10;99.90
47168;DHT22;32931;47.778;17.806;2023-04-15T01:55:38;8.10;99.90
47168;DHT22;32931;47.778;17.806;2023-04-15T01:58:04;8.10;99.90
47168;DHT22;32931;47.778;17.806;2023-04-15T02:00:31;8.10;99.90
47168;DHT22;32931;47.778;17.806;2023-04-15T02:02:57;8.10;99.90
47168;DHT22;32931;47.778;17.806;2023-04-15T02:05:24;8.10;99.90
47168;DHT22;32931;47.778;17.806;2023-04-15T02:07:51;8.10;99.90
47168;DHT22;32931;47.778;17.806;2023-04-15T02:10:17;8.10;99.90
47168;DHT22;32931;47.778;17.806;2023-04-15T02:12:43;8.10;99.90
47168;DHT22;32931;47.778;17.806;2023-04-15T02:15:09;8.20;99.90
47168;DHT22;32931;47.778;17.806;2023-04-15T02:17:36;8.20;99.90
47168;DHT22;32931;47.778;17.806;2023-04-15T02:20:03;8.20;99.90
47168;DHT22;32931;47.778;17.806;2023-04-15T02:22:34;8.20;99.90
47168;DHT22;32931;47.778;17.806;2023-04-15T02:25:00;8.20;99.90
47168;DHT22;32931;47.778;17.806;2023-04-15T02:27:26;8.30;99.90
47168;DHT22;32931;47.778;17.806;2023-04-15T02:29:53;8.30;99.90
47168;DHT22;32931;47.778;17.806;2023-04-15T02:32:19;8.30;99.90
47168;DHT22;32931;47.778;17.806;2023-04-15T02:34:48;8.30;99.90
47168;DHT22;32931;47.778;17.806;2023-04-15T02:37:14;8.30;99.90
47168;DHT22;32931;47.778;17.806;2023-04-15T02:39:41;8.30;99.90
47168;DHT22;32931;47.778;17.806;2023-04-15T02:42:07;8.30;99.90
47168;DHT22;32931;47.778;17.806;2023-04-15T02:44:33;8.30;99.90
47168;DHT22;32931;47.778;17.806;2023-04-15T02:47:01;8.30;99.90
47168;DHT22;32931;47.778;17.806;2023-04-15T02:49:28;8.30;99.90
47168;DHT22;32931;47.778;17.806;2023-04-15T02:51:55;8.30;99.90
47168;DHT22;32931;47.778;17.806;2023-04-15T02:54:24;8.30;99.90
47168;DHT22;32931;47.778;17.806;2023-04-15T02:56:51;8.30;99.90
47168;DHT22;32931;47.778;17.806;2023-04-15T02:59:20;8.30;99.90
47168;DHT22;32931;47.778;17.806;2023-04-15T03:01:46;8.30;99.90
47168;DHT22;32931;47.778;17.806;2023-04-15T03:04:12;8.30;99.90
47168;DHT22;32931;47.778;17.806;2023-04-15T03:06:39;8.30;99.90
47168;DHT22;32931;47.778;17.806;2023-04-15T03:09:05;8.30;99.90
47168;DHT22;32931;47.778;17.806;2023-04-15T03:11:32;8.30;99.90
47168;DHT22;32931;47.778;17.806;2023-04-15T03:13:58;8.30;99.90
47168;DHT22;32931;47.778;17.806;2023-04-15T03:16:24;8.20;99.90
47168;DHT22;32931;47.778;17.806;2023-04-15T03:18:50;8.20;99.90
47168;DHT22;32931;47.778;17.806;2023-04-15T03:21:16;8.20;99.90
47168;DHT22;32931;47.778;17.806;2023-04-15T03:23:45;8.20;99.90
47168;DHT22;32931;47.778;17.806;2023-04-15T03:26:32;8.20;99.90
47168;DHT22;32931;47.778;17.806;2023-04-15T03:28:58;8.20;99.90
47168;DHT22;32931;47.778;17.806;2023-04-15T03:31:24;8.20;99.90
47168;DHT22;32931;47.778;17.806;2023-04-15T03:33:50;8.20;99.90
47168;DHT22;32931;47.778;17.806;2023-04-15T03:36:16;8.10;99.90
47168;DHT22;32931;47.778;17.806;2023-04-15T03:38:43;8.10;99.90
47168;DHT22;32931;47.778;17.806;2023-04-15T03:41:09;8.10;99.90
47168;DHT22;32931;47.778;17.806;2023-04-15T03:43:35;8.10;99.90
47168;DHT22;32931;47.778;17.806;2023-04-15T03:46:02;8.10;99.90
47168;DHT22;32931;47.778;17.806;2023-04-15T03:48:28;8.10;99.90
47168;DHT22;32931;47.778;17.806;2023-04-15T03:50:54;8.10;99.90
47168;DHT22;32931;47.778;17.806;2023-04-15T03:53:21;8.10;99.90
47168;DHT22;32931;47.778;17.806;2023-04-15T03:55:47;8.10;99.90
47168;DHT22;32931;47.778;17.806;2023-04-15T03:58:13;8.10;99.90
47168;DHT22;32931;47.778;17.806;2023-04-15T04:00:40;8.10;99.90
47168;DHT22;32931;47.778;17.806;2023-04-15T04:03:07;8.10;99.90
47168;DHT22;32931;47.778;17.806;2023-04-15T04:05:33;8.10;99.90
47168;DHT22;32931;47.778;17.806;2023-04-15T04:08:02;8.10;99.90
47168;DHT22;32931;47.778;17.806;2023-04-15T04:10:28;8.10;99.90
47168;DHT22;32931;47.778;17.806;2023-04-15T04:12:54;8.10;99.90
47168;DHT22;32931;47.778;17.806;2023-04-15T04:15:20;8.10;99.90
47168;DHT22;32931;47.778;17.806;2023-04-15T04:17:46;8.10;99.90
47168;DHT22;32931;47.778;17.806;2023-04-15T04:20:12;8.20;99.90
47168;DHT22;32931;47.778;17.806;2023-04-15T04:22:39;8.20;99.90
47168;DHT22;32931;47.778;17.806;2023-04-15T04:25:06;8.20;99.90
47168;DHT22;32931;47.778;17.806;2023-04-15T04:27:33;8.20;99.90
47168;DHT22;32931;47.778;17.806;2023-04-15T04:30:00;8.20;99.90
47168;DHT22;32931;47.778;17.806;2023-04-15T04:32:27;8.30;99.90
47168;DHT22;32931;47.778;17.806;2023-04-15T04:34:53;8.30;99.90
47168;DHT22;32931;47.778;17.806;2023-04-15T04:37:19;8.30;99.90
47168;DHT22;32931;47.778;17.806;2023-04-15T04:39:45;8.30;99.90
47168;DHT22;32931;47.778;17.806;2023-04-15T04:42:11;8.30;99.90
47168;DHT22;32931;47.778;17.806;2023-04-15T04:44:37;8.30;99.90
47168;DHT22;32931;47.778;17.806;2023-04-15T04:47:04;8.40;99.90
47168;DHT22;32931;47.778;17.806;2023-04-15T04:49:31;8.40;99.90
47168;DHT22;32931;47.778;17.806;2023-04-15T04:51:57;8.40;99.90
47168;DHT22;32931;47.778;17.806;2023-04-15T04:54:24;8.40;99.90
47168;DHT22;32931;47.778;17.806;2023-04-15T04:56:51;8.40;99.90
47168;DHT22;32931;47.778;17.806;2023-04-15T04:59:17;8.50;99.90
47168;DHT22;32931;47.778;17.806;2023-04-15T05:01:43;8.50;99.90
47168;DHT22;32931;47.778;17.806;2023-04-15T05:04:09;8.40;99.90
47168;DHT22;32931;47.778;17.806;2023-04-15T05:06:36;8.50;99.90
47168;DHT22;32931;47.778;17.806;2023-04-15T05:09:02;8.50;99.90
47168;DHT22;32931;47.778;17.806;2023-04-15T05:11:28;8.50;99.90
47168;DHT22;32931;47.778;17.806;2023-04-15T05:13:54;8.50;99.90
47168;DHT22;32931;47.778;17.806;2023-04-15T05:16:21;8.60;99.90
47168;DHT22;32931;47.778;17.806;2023-04-15T05:18:47;8.60;99.90
47168;DHT22;32931;47.778;17.806;2023-04-15T05:21:13;8.60;99.90
47168;DHT22;32931;47.778;17.806;2023-04-15T05:23:39;8.60;99.90
47168;DHT22;32931;47.778;17.806;2023-04-15T05:26:06;8.70;99.90
47168;DHT22;32931;47.778;17.806;2023-04-15T05:28:32;8.70;99.90
47168;DHT22;32931;47.778;17.806;2023-04-15T05:30:59;8.70;99.90
47168;DHT22;32931;47.778;17.806;2023-04-15T05:33:25;8.80;99.90
47168;DHT22;32931;47.778;17.806;2023-04-15T05:35:52;8.80;99.90
47168;DHT22;32931;47.778;17.806;2023-04-15T05:38:18;8.80;99.90
47168;DHT22;32931;47.778;17.806;2023-04-15T05:40:44;8.80;99.90
47168;DHT22;32931;47.778;17.806;2023-04-15T05:43:10;8.90;99.90
47168;DHT22;32931;47.778;17.806;2023-04-15T05:45:36;8.90;99.90
47168;DHT22;32931;47.778;17.806;2023-04-15T05:48:03;8.90;99.90
47168;DHT22;32931;47.778;17.806;2023-04-15T05:50:29;8.90;99.90
47168;DHT22;32931;47.778;17.806;2023-04-15T05:52:55;9.00;99.90
47168;DHT22;32931;47.778;17.806;2023-04-15T05:55:21;9.00;99.90
47168;DHT22;32931;47.778;17.806;2023-04-15T05:57:47;9.00;99.90
47168;DHT22;32931;47.778;17.806;2023-04-15T06:00:14;9.10;99.90
47168;DHT22;32931;47.778;17.806;2023-04-15T06:02:40;9.10;99.90
47168;DHT22;32931;47.778;17.806;2023-04-15T06:05:06;9.10;99.90
47168;DHT22;32931;47.778;17.806;2023-04-15T06:07:37;9.20;99.90
47168;DHT22;32931;47.778;17.806;2023-04-15T06:10:04;9.20;99.90
47168;DHT22;32931;47.778;17.806;2023-04-15T06:12:30;9.30;99.90
47168;DHT22;32931;47.778;17.806;2023-04-15T06:14:56;9.40;99.90
47168;DHT22;32931;47.778;17.806;2023-04-15T06:17:23;9.50;99.90
47168;DHT22;32931;47.778;17.806;2023-04-15T06:19:49;9.50;99.90
47168;DHT22;32931;47.778;17.806;2023-04-15T06:22:21;9.50;99.90
47168;DHT22;32931;47.778;17.806;2023-04-15T06:24:48;9.60;99.90
47168;DHT22;32931;47.778;17.806;2023-04-15T06:27:18;9.60;99.90
47168;DHT22;32931;47.778;17.806;2023-04-15T06:29:44;9.60;99.90
47168;DHT22;32931;47.778;17.806;2023-04-15T06:32:10;9.70;99.90
47168;DHT22;32931;47.778;17.806;2023-04-15T06:34:37;9.70;99.90
47168;DHT22;32931;47.778;17.806;2023-04-15T06:37:03;9.80;99.90
47168;DHT22;32931;47.778;17.806;2023-04-15T06:39:29;9.80;99.90
47168;DHT22;32931;47.778;17.806;2023-04-15T06:41:55;9.90;99.90
47168;DHT22;32931;47.778;17.806;2023-04-15T06:44:21;9.90;99.90
47168;DHT22;32931;47.778;17.806;2023-04-15T06:46:47;10.00;99.90
47168;DHT22;32931;47.778;17.806;2023-04-15T06:49:14;10.00;99.90
47168;DHT22;32931;47.778;17.806;2023-04-15T06:51:41;10.00;99.90
47168;DHT22;32931;47.778;17.806;2023-04-15T06:54:08;10.00;99.90
47168;DHT22;32931;47.778;17.806;2023-04-15T06:56:34;10.00;99.90
47168;DHT22;32931;47.778;17.806;2023-04-15T06:59:00;10.00;99.90
47168;DHT22;32931;47.778;17.806;2023-04-15T07:01:27;10.10;99.90
47168;DHT22;32931;47.778;17.806;2023-04-15T07:03:53;10.10;99.90
47168;DHT22;32931;47.778;17.806;2023-04-15T07:06:19;10.10;99.90
47168;DHT22;32931;47.778;17.806;2023-04-15T07:08:46;10.10;99.90
47168;DHT22;32931;47.778;17.806;2023-04-15T07:11:12;10.20;99.90
47168;DHT22;32931;47.778;17.806;2023-04-15T07:13:39;10.20;99.90
47168;DHT22;32931;47.778;17.806;2023-04-15T07:16:05;10.20;99.90
47168;DHT22;32931;47.778;17.806;2023-04-15T07:18:31;10.30;99.90
47168;DHT22;32931;47.778;17.806;2023-04-15T07:20:57;10.40;99.90
47168;DHT22;32931;47.778;17.806;2023-04-15T07:23:24;10.40;99.90
47168;DHT22;32931;47.778;17.806;2023-04-15T07:25:50;10.50;99.90
47168;DHT22;32931;47.778;17.806;2023-04-15T07:28:17;10.50;99.90
47168;DHT22;32931;47.778;17.806;2023-04-15T07:30:43;10.60;99.90
47168;DHT22;32931;47.778;17.806;2023-04-15T07:33:09;10.70;99.90
47168;DHT22;32931;47.778;17.806;2023-04-15T07:35:35;10.80;99.90
47168;DHT22;32931;47.778;17.806;2023-04-15T07:38:01;10.80;99.90
47168;DHT22;32931;47.778;17.806;2023-04-15T07:40:28;11.00;99.90
47168;DHT22;32931;47.778;17.806;2023-04-15T07:42:55;11.10;99.90
47168;DHT22;32931;47.778;17.806;2023-04-15T07:45:23;11.20;99.90
47168;DHT22;32931;47.778;17.806;2023-04-15T07:47:50;11.30;99.90
47168;DHT22;32931;47.778;17.806;2023-04-15T07:50:16;11.40;99.90
47168;DHT22;32931;47.778;17.806;2023-04-15T07:52:43;11.50;99.90
47168;DHT22;32931;47.778;17.806;2023-04-15T07:55:09;11.60;99.90
47168;DHT22;32931;47.778;17.806;2023-04-15T07:57:36;11.60;99.90
47168;DHT22;32931;47.778;17.806;2023-04-15T08:00:03;11.70;99.90
47168;DHT22;32931;47.778;17.806;2023-04-15T08:02:30;11.90;99.90
47168;DHT22;32931;47.778;17.806;2023-04-15T08:04:57;11.90;99.90
47168;DHT22;32931;47.778;17.806;2023-04-15T08:07:24;12.00;99.90
47168;DHT22;32931;47.778;17.806;2023-04-15T08:09:51;12.10;99.90
47168;DHT22;32931;47.778;17.806;2023-04-15T08:12:17;12.20;99.90
47168;DHT22;32931;47.778;17.806;2023-04-15T08:14:43;12.30;99.90
47168;DHT22;32931;47.778;17.806;2023-04-15T08:17:09;12.30;99.90
47168;DHT22;32931;47.778;17.806;2023-04-15T08:19:35;12.40;99.90
47168;DHT22;32931;47.778;17.806;2023-04-15T08:22:02;12.40;99.90
47168;DHT22;32931;47.778;17.806;2023-04-15T08:24:28;12.40;99.90
47168;DHT22;32931;47.778;17.806;2023-04-15T08:26:55;12.40;99.90
47168;DHT22;32931;47.778;17.806;2023-04-15T08:29:22;12.50;99.90
47168;DHT22;32931;47.778;17.806;2023-04-15T08:31:49;12.50;99.90
47168;DHT22;32931;47.778;17.806;2023-04-15T08:34:15;12.70;99.90
47168;DHT22;32931;47.778;17.806;2023-04-15T08:36:41;12.70;99.90
47168;DHT22;32931;47.778;17.806;2023-04-15T08:39:08;12.70;99.90
47168;DHT22;32931;47.778;17.806;2023-04-15T08:41:45;12.70;99.90
47168;DHT22;32931;47.778;17.806;2023-04-15T08:44:13;12.80;99.90
47168;DHT22;32931;47.778;17.806;2023-04-15T08:46:40;12.70;99.90
47168;DHT22;32931;47.778;17.806;2023-04-15T08:49:11;12.80;99.90
47168;DHT22;32931;47.778;17.806;2023-04-15T08:51:40;12.80;99.90
47168;DHT22;32931;47.778;17.806;2023-04-15T08:54:10;12.80;99.90
47168;DHT22;32931;47.778;17.806;2023-04-15T08:56:38;12.80;99.90
47168;DHT22;32931;47.778;17.806;2023-04-15T08:59:04;12.80;99.90
47168;DHT22;32931;47.778;17.806;2023-04-15T09:01:31;12.80;99.90
47168;DHT22;32931;47.778;17.806;2023-04-15T09:03:58;12.80;99.90
47168;DHT22;32931;47.778;17.806;2023-04-15T09:06:25;12.70;99.90
47168;DHT22;32931;47.778;17.806;2023-04-15T09:08:52;12.60;99.90
47168;DHT22;32931;47.778;17.806;2023-04-15T09:11:18;12.60;99.90
47168;DHT22;32931;47.778;17.806;2023-04-15T09:13:46;12.60;99.90
47168;DHT22;32931;47.778;17.806;2023-04-15T09:16:12;12.50;99.90
47168;DHT22;32931;47.778;17.806;2023-04-15T09:18:39;12.50;99.90
47168;DHT22;32931;47.778;17.806;2023-04-15T09:21:12;12.40;99.90
47168;DHT22;32931;47.778;17.806;2023-04-15T09:23:52;12.40;99.90
47168;DHT22;32931;47.778;17.806;2023-04-15T09:26:19;12.40;99.90
47168;DHT22;32931;47.778;17.806;2023-04-15T09:28:45;12.50;99.90
47168;DHT22;32931;47.778;17.806;2023-04-15T09:31:11;12.60;99.90
47168;DHT22;32931;47.778;17.806;2023-04-15T09:33:54;12.60;99.90
47168;DHT22;32931;47.778;17.806;2023-04-15T09:36:21;12.60;99.90
47168;DHT22;32931;47.778;17.806;2023-04-15T09:38:55;12.60;99.90
47168;DHT22;32931;47.778;17.806;2023-04-15T09:41:22;12.50;99.90
47168;DHT22;32931;47.778;17.806;2023-04-15T09:43:49;12.30;99.90
47168;DHT22;32931;47.778;17.806;2023-04-15T09:46:15;12.10;99.90
47168;DHT22;32931;47.778;17.806;2023-04-15T09:48:41;12.10;99.90
47168;DHT22;32931;47.778;17.806;2023-04-15T09:51:07;12.00;99.90
47168;DHT22;32931;47.778;17.806;2023-04-15T09:53:35;12.00;99.90
47168;DHT22;32931;47.778;17.806;2023-04-15T09:56:02;11.90;99.90
47168;DHT22;32931;47.778;17.806;2023-04-15T09:58:29;11.90;99.90
47168;DHT22;32931;47.778;17.806;2023-04-15T10:00:56;12.00;99.90
47168;DHT22;32931;47.778;17.806;2023-04-15T10:03:28;12.10;99.90
47168;DHT22;32931;47.778;17.806;2023-04-15T10:05:55;12.10;99.90
47168;DHT22;32931;47.778;17.806;2023-04-15T10:08:23;12.20;99.90
47168;DHT22;32931;47.778;17.806;2023-04-15T10:10:51;12.20;99.90
47168;DHT22;32931;47.778;17.806;2023-04-15T10:13:18;12.20;99.90
47168;DHT22;32931;47.778;17.806;2023-04-15T10:15:50;12.10;99.90
47168;DHT22;32931;47.778;17.806;2023-04-15T10:18:19;12.10;99.90
47168;DHT22;32931;47.778;17.806;2023-04-15T10:20:47;12.00;99.90
47168;DHT22;32931;47.778;17.806;2023-04-15T10:23:14;12.00;99.90
47168;DHT22;32931;47.778;17.806;2023-04-15T10:25:41;12.00;99.90
47168;DHT22;32931;47.778;17.806;2023-04-15T10:28:08;12.00;99.90
47168;DHT22;32931;47.778;17.806;2023-04-15T10:30:35;12.00;99.90
47168;DHT22;32931;47.778;17.806;2023-04-15T10:33:02;12.00;99.90
47168;DHT22;32931;47.778;17.806;2023-04-15T10:35:31;12.00;99.90
47168;DHT22;32931;47.778;17.806;2023-04-15T10:37:57;11.90;99.90
47168;DHT22;32931;47.778;17.806;2023-04-15T10:40:30;11.90;99.90
47168;DHT22;32931;47.778;17.806;2023-04-15T10:42:59;11.90;99.90
47168;DHT22;32931;47.778;17.806;2023-04-15T10:45:36;11.80;99.90
47168;DHT22;32931;47.778;17.806;2023-04-15T10:48:05;11.80;99.90
47168;DHT22;32931;47.778;17.806;2023-04-15T10:50:32;11.70;99.90
47168;DHT22;32931;47.778;17.806;2023-04-15T10:53:02;11.90;99.90
47168;DHT22;32931;47.778;17.806;2023-04-15T10:55:31;12.00;99.90
47168;DHT22;32931;47.778;17.806;2023-04-15T10:57:59;12.10;99.90
47168;DHT22;32931;47.778;17.806;2023-04-15T11:00:30;12.30;99.90
47168;DHT22;32931;47.778;17.806;2023-04-15T11:03:09;12.40;99.90
47168;DHT22;32931;47.778;17.806;2023-04-15T11:05:51;12.60;99.90
47168;DHT22;32931;47.778;17.806;2023-04-15T11:08:18;12.80;99.90
47168;DHT22;32931;47.778;17.806;2023-04-15T11:15:38;13.10;99.90
47168;DHT22;32931;47.778;17.806;2023-04-15T11:18:18;13.20;99.90
47168;DHT22;32931;47.778;17.806;2023-04-15T11:20:48;13.30;99.90
47168;DHT22;32931;47.778;17.806;2023-04-15T11:23:17;13.30;99.90
47168;DHT22;32931;47.778;17.806;2023-04-15T11:25:44;13.30;99.90
47168;DHT22;32931;47.778;17.806;2023-04-15T11:28:11;13.30;99.90
47168;DHT22;32931;47.778;17.806;2023-04-15T11:30:39;13.30;99.90
47168;DHT22;32931;47.778;17.806;2023-04-15T11:33:07;13.30;99.90
47168;DHT22;32931;47.778;17.806;2023-04-15T11:35:34;13.30;99.90
47168;DHT22;32931;47.778;17.806;2023-04-15T11:38:04;13.40;99.90
47168;DHT22;32931;47.778;17.806;2023-04-15T11:40:31;13.50;99.90
47168;DHT22;32931;47.778;17.806;2023-04-15T11:43:06;13.50;99.90
47168;DHT22;32931;47.778;17.806;2023-04-15T11:45:33;13.50;99.90
47168;DHT22;32931;47.778;17.806;2023-04-15T11:48:07;13.40;99.90
47168;DHT22;32931;47.778;17.806;2023-04-15T11:50:34;13.30;99.90
47168;DHT22;32931;47.778;17.806;2023-04-15T11:53:05;13.20;99.90
47168;DHT22;32931;47.778;17.806;2023-04-15T11:55:50;13.20;99.90
47168;DHT22;32931;47.778;17.806;2023-04-15T11:58:22;13.40;99.90
47168;DHT22;32931;47.778;17.806;2023-04-15T12:00:58;13.60;99.90
47168;DHT22;32931;47.778;17.806;2023-04-15T12:03:39;13.70;99.90
47168;DHT22;32931;47.778;17.806;2023-04-15T12:14:07;13.60;99.90
47168;DHT22;32931;47.778;17.806;2023-04-15T12:16:35;13.50;99.90
47168;DHT22;32931;47.778;17.806;2023-04-15T12:19:10;13.40;99.90
47168;DHT22;32931;47.778;17.806;2023-04-15T12:21:39;13.40;99.90
47168;DHT22;32931;47.778;17.806;2023-04-15T12:24:08;13.50;99.90
47168;DHT22;32931;47.778;17.806;2023-04-15T12:26:44;13.30;99.90
47168;DHT22;32931;47.778;17.806;2023-04-15T12:29:13;13.40;99.90
47168;DHT22;32931;47.778;17.806;2023-04-15T12:31:50;13.50;99.90
47168;DHT22;32931;47.778;17.806;2023-04-15T12:34:24;13.60;99.90
47168;DHT22;32931;47.778;17.806;2023-04-15T12:36:51;13.50;99.90
47168;DHT22;32931;47.778;17.806;2023-04-15T12:39:17;13.50;99.90
47168;DHT22;32931;47.778;17.806;2023-04-15T12:41:43;13.40;99.90
47168;DHT22;32931;47.778;17.806;2023-04-15T12:44:09;13.10;99.90
47168;DHT22;32931;47.778;17.806;2023-04-15T12:46:35;12.90;99.90
47168;DHT22;32931;47.778;17.806;2023-04-15T12:49:02;12.80;99.90
47168;DHT22;32931;47.778;17.806;2023-04-15T12:51:28;13.00;99.90
47168;DHT22;32931;47.778;17.806;2023-04-15T12:53:57;13.20;99.90
47168;DHT22;32931;47.778;17.806;2023-04-15T12:56:23;13.30;99.90
47168;DHT22;32931;47.778;17.806;2023-04-15T12:58:49;13.50;99.90
47168;DHT22;32931;47.778;17.806;2023-04-15T13:01:16;13.60;99.90
47168;DHT22;32931;47.778;17.806;2023-04-15T13:03:42;13.50;99.90
47168;DHT22;32931;47.778;17.806;2023-04-15T13:06:09;13.60;99.90
47168;DHT22;32931;47.778;17.806;2023-04-15T13:08:35;13.40;99.90
47168;DHT22;32931;47.778;17.806;2023-04-15T13:11:01;13.30;99.90
47168;DHT22;32931;47.778;17.806;2023-04-15T13:13:27;13.50;99.90
47168;DHT22;32931;47.778;17.806;2023-04-15T13:15:53;13.60;99.90
47168;DHT22;32931;47.778;17.806;2023-04-15T13:18:19;13.80;99.90
47168;DHT22;32931;47.778;17.806;2023-04-15T13:20:46;14.10;99.90
47168;DHT22;32931;47.778;17.806;2023-04-15T13:23:12;14.40;99.90
47168;DHT22;32931;47.778;17.806;2023-04-15T13:25:38;14.80;99.90
47168;DHT22;32931;47.778;17.806;2023-04-15T13:28:04;15.10;99.90
47168;DHT22;32931;47.778;17.806;2023-04-15T13:30:30;15.10;99.90
47168;DHT22;32931;47.778;17.806;2023-04-15T13:32:56;15.10;99.90
47168;DHT22;32931;47.778;17.806;2023-04-15T13:35:23;14.70;99.90
47168;DHT22;32931;47.778;17.806;2023-04-15T13:37:49;14.50;99.90
47168;DHT22;32931;47.778;17.806;2023-04-15T13:40:15;14.50;99.90
47168;DHT22;32931;47.778;17.806;2023-04-15T13:42:42;14.30;99.90
47168;DHT22;32931;47.778;17.806;2023-04-15T13:45:08;14.30;99.90
47168;DHT22;32931;47.778;17.806;2023-04-15T13:47:34;14.40;99.90
47168;DHT22;32931;47.778;17.806;2023-04-15T13:50:01;14.40;99.90
47168;DHT22;32931;47.778;17.806;2023-04-15T13:52:27;14.40;99.90
47168;DHT22;32931;47.778;17.806;2023-04-15T13:54:53;14.30;99.90
47168;DHT22;32931;47.778;17.806;2023-04-15T13:57:19;14.20;99.90
47168;DHT22;32931;47.778;17.806;2023-04-15T13:59:45;14.30;99.90
47168;DHT22;32931;47.778;17.806;2023-04-15T14:02:13;14.40;99.90
47168;DHT22;32931;47.778;17.806;2023-04-15T14:04:39;14.80;99.90
47168;DHT22;32931;47.778;17.806;2023-04-15T14:07:05;15.30;99.90
47168;DHT22;32931;47.778;17.806;2023-04-15T14:09:32;16.10;99.90
47168;DHT22;32931;47.778;17.806;2023-04-15T14:11:58;16.70;99.90
47168;DHT22;32931;47.778;17.806;2023-04-15T14:14:25;17.40;99.90
47168;DHT22;32931;47.778;17.806;2023-04-15T14:16:51;18.40;99.90
47168;DHT22;32931;47.778;17.806;2023-04-15T14:19:17;19.10;99.90
47168;DHT22;32931;47.778;17.806;2023-04-15T14:21:43;19.70;99.90
47168;DHT22;32931;47.778;17.806;2023-04-15T14:24:10;19.60;99.90
47168;DHT22;32931;47.778;17.806;2023-04-15T14:26:36;19.10;99.20
47168;DHT22;32931;47.778;17.806;2023-04-15T14:29:02;18.40;98.10
47168;DHT22;32931;47.778;17.806;2023-04-15T14:31:28;17.70;98.40
47168;DHT22;32931;47.778;17.806;2023-04-15T14:33:54;17.50;99.50
47168;DHT22;32931;47.778;17.806;2023-04-15T14:36:20;17.40;99.60
47168;DHT22;32931;47.778;17.806;2023-04-15T14:38:46;17.50;99.90
47168;DHT22;32931;47.778;17.806;2023-04-15T14:41:13;17.60;99.90
47168;DHT22;32931;47.778;17.806;2023-04-15T14:43:39;17.80;99.40
47168;DHT22;32931;47.778;17.806;2023-04-15T14:46:05;18.00;99.00
47168;DHT22;32931;47.778;17.806;2023-04-15T14:48:33;18.10;98.60
47168;DHT22;32931;47.778;17.806;2023-04-15T14:50:59;18.10;98.20
47168;DHT22;32931;47.778;17.806;2023-04-15T14:53:25;18.30;98.70
47168;DHT22;32931;47.778;17.806;2023-04-15T14:55:51;18.90;99.90
47168;DHT22;32931;47.778;17.806;2023-04-15T14:58:17;19.70;99.60
47168;DHT22;32931;47.778;17.806;2023-04-15T15:00:44;20.30;98.10
47168;DHT22;32931;47.778;17.806;2023-04-15T15:03:11;20.50;96.30
47168;DHT22;32931;47.778;17.806;2023-04-15T15:05:40;20.30;95.00
47168;DHT22;32931;47.778;17.806;2023-04-15T15:08:08;20.00;94.50
47168;DHT22;32931;47.778;17.806;2023-04-15T15:10:35;19.50;94.20
47168;DHT22;32931;47.778;17.806;2023-04-15T15:13:10;19.20;94.60
47168;DHT22;32931;47.778;17.806;2023-04-15T15:15:37;18.80;93.40
47168;DHT22;32931;47.778;17.806;2023-04-15T15:18:04;18.40;94.40
47168;DHT22;32931;47.778;17.806;2023-04-15T15:20:30;18.00;94.50
47168;DHT22;32931;47.778;17.806;2023-04-15T15:22:57;17.50;94.60
47168;DHT22;32931;47.778;17.806;2023-04-15T15:25:23;17.30;95.20
47168;DHT22;32931;47.778;17.806;2023-04-15T15:27:50;17.00;95.50
47168;DHT22;32931;47.778;17.806;2023-04-15T15:30:17;16.70;96.10
47168;DHT22;32931;47.778;17.806;2023-04-15T15:32:43;16.60;96.90
47168;DHT22;32931;47.778;17.806;2023-04-15T15:35:10;16.30;97.60